Time;durP1;ratioP1;P1;durP2;ratioP2;P2;SDS_P1;SDS_P2;PMS_P1;PMS_P2;Temp;Humidity;BMP_temperature;BMP_pressure;BME280_temperature;BME280_humidity;BME280_pressure;Samples;Min_cycle;Max_cycle;Signal;HPM_P1;HPM_P2
2023/01/06 00:00:23;;;;;;;1999.90;999.90;;;7.60;99.90;;;;;;5054310;28;20039;-76
2023/01/06 00:02:50;;;;;;;1999.90;999.90;;;7.50;99.90;;;;;;5056918;28;20029;-76
2023/01/06 00:05:16;;;;;;;1999.90;999.90;;;7.50;99.90;;;;;;5059874;28;20055;-75
2023/01/06 00:07:43;;;;;;;1999.90;999.90;;;7.40;99.90;;;;;;5051537;28;20495;-76
2023/01/06 00:10:09;;;;;;;1999.90;999.90;;;7.40;99.90;;;;;;5056936;28;20116;-76
2023/01/06 00:12:35;;;;;;;1999.90;999.90;;;7.30;99.90;;;;;;5052637;28;20518;-76
2023/01/06 00:15:01;;;;;;;1999.90;999.90;;;7.20;99.90;;;;;;5037930;28;20036;-76
2023/01/06 00:17:26;;;;;;;1999.90;999.90;;;7.20;99.90;;;;;;5054381;28;20021;-76
2023/01/06 00:19:52;;;;;;;1999.90;999.90;;;7.20;99.90;;;;;;5046377;28;20141;-76
2023/01/06 00:22:18;;;;;;;1999.90;999.90;;;7.20;99.90;;;;;;5060924;28;20486;-76
2023/01/06 00:24:43;;;;;;;1999.90;999.90;;;7.20;99.90;;;;;;5053653;28;20464;-76
2023/01/06 00:27:09;;;;;;;1999.90;999.90;;;7.20;99.90;;;;;;5056149;28;20024;-76
2023/01/06 00:29:35;;;;;;;1999.90;999.90;;;7.30;99.90;;;;;;5059604;28;20067;-75
2023/01/06 00:32:01;;;;;;;1999.90;999.90;;;7.30;99.90;;;;;;5063552;28;20025;-76
2023/01/06 00:34:27;;;;;;;1999.90;999.90;;;7.30;99.90;;;;;;5057061;28;20021;-76
2023/01/06 00:36:53;;;;;;;1999.90;999.90;;;7.30;99.90;;;;;;5053227;28;20095;-76
2023/01/06 00:39:19;;;;;;;1999.90;999.90;;;7.30;99.90;;;;;;5058362;28;20051;-76
2023/01/06 00:42:03;;;;;;;1999.90;999.90;;;7.30;99.90;;;;;;5058264;28;20024;-76
2023/01/06 00:44:38;;;;;;;1999.90;999.90;;;7.20;99.90;;;;;;5056359;28;20036;-76
2023/01/06 00:47:07;;;;;;;1999.90;999.90;;;7.20;99.90;;;;;;5048673;28;20425;-76
2023/01/06 00:49:32;;;;;;;1999.90;999.90;;;7.20;99.90;;;;;;5062306;28;20548;-76
2023/01/06 00:52:00;;;;;;;1999.90;999.90;;;7.10;99.90;;;;;;5057824;28;20029;-76
2023/01/06 00:54:25;;;;;;;1999.90;999.90;;;7.10;99.90;;;;;;5056397;28;20999;-75
2023/01/06 00:56:53;;;;;;;1999.90;999.90;;;7.10;99.90;;;;;;5058242;28;20029;-76
2023/01/06 00:59:21;;;;;;;1999.90;999.90;;;7.00;99.90;;;;;;5066443;28;20131;-76
2023/01/06 01:01:48;;;;;;;1999.90;999.90;;;7.00;99.90;;;;;;5054838;28;20580;-76
2023/01/06 01:04:14;;;;;;;1999.90;999.90;;;7.00;99.90;;;;;;5066567;28;20040;-76
2023/01/06 01:06:42;;;;;;;1999.90;999.90;;;7.00;99.90;;;;;;5055947;28;20040;-75
2023/01/06 01:09:09;;;;;;;1999.90;999.90;;;7.00;99.90;;;;;;5062950;28;20035;-76
2023/01/06 01:14:20;;;;;;;1999.90;999.90;;;6.90;99.90;;;;;;5059326;28;20102;-76
2023/01/06 01:16:46;;;;;;;1999.90;999.90;;;6.80;99.90;;;;;;5067209;28;20513;-76
2023/01/06 01:19:12;;;;;;;1999.90;999.90;;;6.70;99.90;;;;;;5067091;28;20058;-76
2023/01/06 01:21:38;;;;;;;1999.90;999.90;;;6.70;99.90;;;;;;5061926;28;20027;-76
2023/01/06 01:24:04;;;;;;;1999.90;999.90;;;6.70;99.90;;;;;;5057715;28;20613;-76
2023/01/06 01:26:30;;;;;;;1999.90;999.90;;;6.60;99.90;;;;;;5060914;28;20040;-76
2023/01/06 01:28:56;;;;;;;1999.90;999.90;;;6.50;99.90;;;;;;5064959;28;20648;-76
2023/01/06 01:31:21;;;;;;;1999.90;999.90;;;6.40;99.90;;;;;;5054418;28;20120;-76
2023/01/06 01:33:47;;;;;;;1999.90;999.90;;;6.30;99.90;;;;;;5058176;28;20041;-76
2023/01/06 01:36:15;;;;;;;1999.90;999.90;;;6.30;99.90;;;;;;5066479;28;20037;-76
2023/01/06 01:38:41;;;;;;;1999.90;999.90;;;6.30;99.90;;;;;;5058091;28;20017;-76
2023/01/06 01:41:09;;;;;;;1999.90;999.90;;;6.30;99.90;;;;;;5051825;28;20063;-76
2023/01/06 01:43:47;;;;;;;1999.90;999.90;;;6.30;99.90;;;;;;5061655;28;20021;-76
2023/01/06 01:46:17;;;;;;;1999.90;999.90;;;6.20;99.90;;;;;;5059785;28;20056;-76
2023/01/06 01:48:43;;;;;;;1999.90;999.90;;;6.20;99.90;;;;;;5078954;28;20032;-76
2023/01/06 01:51:12;;;;;;;1999.90;999.90;;;6.20;99.90;;;;;;5064496;28;20503;-75
2023/01/06 01:53:45;;;;;;;1999.90;999.90;;;6.20;99.90;;;;;;5054624;28;20033;-75
2023/01/06 01:56:15;;;;;;;1999.90;999.90;;;6.10;99.90;;;;;;5052353;28;20039;-76
2023/01/06 01:58:57;;;;;;;1999.90;999.90;;;6.10;99.90;;;;;;5063902;28;20033;-75
2023/01/06 02:01:22;;;;;;;1999.90;999.90;;;6.10;99.90;;;;;;5060012;28;20037;-75
2023/01/06 02:03:48;;;;;;;1999.90;999.90;;;6.10;99.90;;;;;;5060298;28;20037;-75
2023/01/06 02:06:18;;;;;;;1999.90;999.90;;;6.10;99.90;;;;;;5066928;28;20033;-76
2023/01/06 02:09:08;;;;;;;1999.90;999.90;;;6.00;99.90;;;;;;5060837;28;20033;-76
2023/01/06 02:11:37;;;;;;;1999.90;999.90;;;5.90;99.90;;;;;;5065232;28;20070;-76
2023/01/06 02:14:09;;;;;;;1999.90;999.90;;;5.80;99.90;;;;;;5059022;28;20448;-76
2023/01/06 02:16:59;;;;;;;1999.90;999.90;;;5.80;99.90;;;;;;5063668;28;20024;-76
2023/01/06 02:19:46;;;;;;;1999.90;999.90;;;5.80;99.90;;;;;;5063018;28;20051;-76
2023/01/06 02:22:32;;;;;;;1999.90;999.90;;;5.70;99.90;;;;;;5062373;28;20028;-76
2023/01/06 02:25:35;;;;;;;1999.90;999.90;;;5.70;99.90;;;;;;5061116;28;20033;-76
2023/01/06 02:28:04;;;;;;;1999.90;999.90;;;5.60;99.90;;;;;;5067197;28;20081;-76
2023/01/06 02:31:13;;;;;;;1999.90;999.90;;;5.60;99.90;;;;;;5060482;28;20068;-76
2023/01/06 02:34:12;;;;;;;1999.90;999.90;;;5.70;99.90;;;;;;5063837;28;20395;-75
2023/01/06 02:37:07;;;;;;;1999.90;999.90;;;5.60;99.90;;;;;;5035636;28;20040;-76
2023/01/06 02:39:54;;;;;;;1999.90;999.90;;;5.60;99.90;;;;;;5064614;28;20759;-75
2023/01/06 02:43:04;;;;;;;1999.90;999.90;;;5.60;99.90;;;;;;5057034;28;20044;-75
2023/01/06 02:45:45;;;;;;;1999.90;999.90;;;5.60;99.90;;;;;;5043111;28;20059;-76
2023/01/06 02:48:45;;;;;;;1999.90;999.90;;;5.50;99.90;;;;;;5064987;28;20025;-76
2023/01/06 02:51:40;;;;;;;1999.90;999.90;;;5.50;99.90;;;;;;5065471;28;20453;-76
2023/01/06 02:54:12;;;;;;;1999.90;999.90;;;5.50;99.90;;;;;;5052574;28;20124;-76
2023/01/06 02:56:44;;;;;;;1999.90;999.90;;;5.50;99.90;;;;;;5064188;28;20025;-76
2023/01/06 02:59:36;;;;;;;1999.90;999.90;;;5.50;99.90;;;;;;5049780;28;20630;-76
2023/01/06 03:02:02;;;;;;;1999.90;999.90;;;5.40;99.90;;;;;;5054021;28;20108;-76
2023/01/06 03:04:36;;;;;;;1999.90;999.90;;;5.40;99.90;;;;;;5057890;28;20044;-76
2023/01/06 03:07:04;;;;;;;1999.90;999.90;;;5.30;99.90;;;;;;5063874;28;20043;-76
2023/01/06 03:09:36;;;;;;;1999.90;999.90;;;5.20;99.90;;;;;;5054467;28;20048;-76
2023/01/06 03:12:28;;;;;;;1999.90;999.90;;;5.20;99.90;;;;;;5040857;28;20106;-76
2023/01/06 03:14:55;;;;;;;1999.90;999.90;;;5.30;99.90;;;;;;5062295;28;20152;-75
2023/01/06 03:17:22;;;;;;;1999.90;999.90;;;5.20;99.90;;;;;;5057226;28;20029;-76
2023/01/06 03:19:47;;;;;;;1999.90;999.90;;;5.20;99.90;;;;;;5044308;28;20138;-75
2023/01/06 03:22:14;;;;;;;1999.90;999.90;;;5.10;99.90;;;;;;5057629;28;20056;-76
2023/01/06 03:24:42;;;;;;;1999.90;999.90;;;5.20;99.90;;;;;;5058020;28;20035;-75
2023/01/06 03:27:08;;;;;;;1999.90;999.90;;;5.10;99.90;;;;;;5059098;28;20016;-75
2023/01/06 03:29:35;;;;;;;1999.90;999.90;;;5.00;99.90;;;;;;5061672;28;20044;-75
2023/01/06 03:32:23;;;;;;;1999.90;999.90;;;5.00;99.90;;;;;;5061476;28;20025;-75
2023/01/06 03:34:52;;;;;;;1999.90;999.90;;;5.00;99.90;;;;;;5062832;28;20056;-75
2023/01/06 03:37:42;;;;;;;1999.90;999.90;;;5.00;99.90;;;;;;5063523;28;20081;-76
2023/01/06 03:40:28;;;;;;;1999.90;999.90;;;5.00;99.90;;;;;;5061650;28;20125;-76
2023/01/06 03:43:15;;;;;;;1999.90;999.90;;;5.00;99.90;;;;;;5074398;28;20136;-75
2023/01/06 03:46:11;;;;;;;1999.90;999.90;;;5.00;99.90;;;;;;5060574;28;20394;-76
2023/01/06 03:48:55;;;;;;;1999.90;999.90;;;5.00;99.90;;;;;;5062108;28;20036;-75
2023/01/06 03:51:58;;;;;;;1999.90;999.90;;;5.00;99.90;;;;;;5066770;28;20032;-76
2023/01/06 03:54:34;;;;;;;1999.90;999.90;;;4.90;99.90;;;;;;5057857;28;20032;-75
2023/01/06 03:57:04;;;;;;;1999.90;999.90;;;4.80;99.90;;;;;;5059228;28;20174;-76
2023/01/06 03:59:34;;;;;;;1999.90;999.90;;;4.80;99.90;;;;;;5060345;28;20039;-75
2023/01/06 04:02:00;;;;;;;1999.90;999.90;;;4.80;99.90;;;;;;5061721;28;20028;-75
2023/01/06 04:04:26;;;;;;;1999.90;999.90;;;4.90;99.90;;;;;;5054145;28;20029;-75
2023/01/06 04:06:52;;;;;;;1999.90;999.90;;;4.90;99.90;;;;;;5063615;28;20518;-75
2023/01/06 04:09:17;;;;;;;1999.90;999.90;;;4.80;99.90;;;;;;5055925;28;20462;-75
2023/01/06 04:14:27;;;;;;;1999.90;999.90;;;4.80;99.90;;;;;;5065278;28;20069;-75
2023/01/06 04:16:53;;;;;;;1999.90;999.90;;;4.60;99.90;;;;;;5063371;28;20531;-75
2023/01/06 04:19:18;;;;;;;1999.90;999.90;;;4.70;99.90;;;;;;5055640;28;20028;-75
2023/01/06 04:21:44;;;;;;;1999.90;999.90;;;4.80;99.90;;;;;;5046344;28;20032;-75
2023/01/06 04:24:10;;;;;;;1999.90;999.90;;;4.90;99.90;;;;;;5058377;28;20033;-75
2023/01/06 04:26:35;;;;;;;1999.90;999.90;;;5.00;99.90;;;;;;5065632;28;20040;-75
2023/01/06 04:29:01;;;;;;;1999.90;999.90;;;5.00;99.90;;;;;;5054317;28;20033;-76
2023/01/06 04:31:27;;;;;;;1999.90;999.90;;;5.20;99.90;;;;;;5057001;28;20072;-76
2023/01/06 04:33:53;;;;;;;1999.90;999.90;;;5.30;99.90;;;;;;5046742;28;20110;-76
2023/01/06 04:36:19;;;;;;;1999.90;999.90;;;5.40;99.90;;;;;;5054537;28;20115;-76
2023/01/06 04:38:45;;;;;;;1999.90;999.90;;;5.60;99.90;;;;;;5064915;28;20502;-76
2023/01/06 04:41:11;;;;;;;1999.90;999.90;;;5.70;99.90;;;;;;5059593;28;20375;-76
2023/01/06 04:43:36;;;;;;;1999.90;999.90;;;5.90;99.90;;;;;;5057060;28;20025;-76
2023/01/06 04:46:02;;;;;;;1999.90;999.90;;;6.00;99.90;;;;;;5063041;28;20056;-76
2023/01/06 04:48:28;;;;;;;1999.90;999.90;;;6.00;99.90;;;;;;5060048;28;20064;-76
2023/01/06 04:51:02;;;;;;;1999.90;999.90;;;6.00;99.90;;;;;;5053770;28;20029;-76
2023/01/06 04:53:27;;;;;;;1999.90;999.90;;;6.00;99.90;;;;;;5053963;28;20102;-76
2023/01/06 04:55:53;;;;;;;1999.90;999.90;;;6.10;99.90;;;;;;5062517;28;20437;-76
2023/01/06 04:58:19;;;;;;;1999.90;999.90;;;6.10;99.90;;;;;;5055677;28;20553;-76
2023/01/06 05:00:44;;;;;;;1999.90;999.90;;;6.20;99.90;;;;;;5053937;28;20037;-76
2023/01/06 05:03:10;;;;;;;1999.90;999.90;;;6.20;99.90;;;;;;5055269;28;20111;-75
2023/01/06 05:05:37;;;;;;;1999.90;999.90;;;6.20;99.90;;;;;;5054910;28;20373;-76
2023/01/06 05:08:03;;;;;;;1999.90;999.90;;;6.30;99.90;;;;;;5056251;28;20094;-76
2023/01/06 05:10:28;;;;;;;1999.90;999.90;;;6.30;99.90;;;;;;5033694;28;20494;-76
2023/01/06 05:12:54;;;;;;;1999.90;999.90;;;6.30;99.90;;;;;;5054973;28;20040;-76
2023/01/06 05:15:19;;;;;;;1999.90;999.90;;;6.30;99.90;;;;;;5054448;28;20083;-76
2023/01/06 05:17:45;;;;;;;1999.90;999.90;;;6.30;99.90;;;;;;5062351;28;20060;-76
2023/01/06 05:20:11;;;;;;;1999.90;999.90;;;6.30;99.90;;;;;;5066223;28;20111;-74
2023/01/06 05:22:36;;;;;;;1999.90;999.90;;;6.40;99.90;;;;;;5050959;28;20029;-75
2023/01/06 05:25:02;;;;;;;1999.90;999.90;;;6.40;99.90;;;;;;5052072;28;20108;-75
2023/01/06 05:27:28;;;;;;;1999.90;999.90;;;6.40;99.90;;;;;;5061857;28;20125;-75
2023/01/06 05:29:54;;;;;;;1999.90;999.90;;;6.40;99.90;;;;;;5054413;28;20115;-75
2023/01/06 05:32:19;;;;;;;1999.90;999.90;;;6.30;99.90;;;;;;5057454;28;20036;-75
2023/01/06 05:34:45;;;;;;;1999.90;999.90;;;6.30;99.90;;;;;;5059703;28;20494;-75
2023/01/06 05:37:10;;;;;;;1999.90;999.90;;;6.20;99.90;;;;;;5063221;28;20030;-75
2023/01/06 05:39:36;;;;;;;1999.90;999.90;;;6.30;99.90;;;;;;5061882;28;20027;-75
2023/01/06 05:42:02;;;;;;;1999.90;999.90;;;6.30;99.90;;;;;;5059207;28;20036;-75
2023/01/06 05:44:27;;;;;;;1999.90;999.90;;;6.30;99.90;;;;;;5054150;28;20063;-76
2023/01/06 05:46:53;;;;;;;1999.90;999.90;;;6.30;99.90;;;;;;5057989;28;20498;-75
2023/01/06 05:49:18;;;;;;;1999.90;999.90;;;6.30;99.90;;;;;;5063022;28;20075;-75
2023/01/06 05:51:44;;;;;;;1999.90;999.90;;;6.40;99.90;;;;;;5059316;28;20390;-76
2023/01/06 05:54:10;;;;;;;1999.90;999.90;;;6.40;99.90;;;;;;5059702;28;20045;-76
2023/01/06 05:56:35;;;;;;;1999.90;999.90;;;6.40;99.90;;;;;;5053291;28;20040;-76
2023/01/06 05:59:01;;;;;;;1999.90;999.90;;;6.40;99.90;;;;;;5058240;28;20457;-75
2023/01/06 06:01:30;;;;;;;1999.90;999.90;;;6.40;99.90;;;;;;5060401;28;20507;-76
2023/01/06 06:03:56;;;;;;;1999.90;999.90;;;6.30;99.90;;;;;;5061010;28;20079;-75
2023/01/06 06:06:24;;;;;;;1999.90;999.90;;;6.30;99.90;;;;;;5047444;28;20494;-75
2023/01/06 06:08:50;;;;;;;1999.90;999.90;;;6.30;99.90;;;;;;5043850;28;20086;-75
2023/01/06 06:11:18;;;;;;;1999.90;999.90;;;6.30;99.90;;;;;;5063535;28;20052;-75
2023/01/06 06:14:01;;;;;;;1999.90;999.90;;;6.30;99.90;;;;;;5060923;28;20051;-76
2023/01/06 06:16:28;;;;;;;1999.90;999.90;;;6.30;99.90;;;;;;5061478;28;20033;-75
2023/01/06 06:18:58;;;;;;;1999.90;999.90;;;6.20;99.90;;;;;;5068222;28;20028;-75
2023/01/06 06:21:26;;;;;;;1999.90;999.90;;;6.10;99.90;;;;;;5060832;28;20037;-76
2023/01/06 06:23:54;;;;;;;1999.90;999.90;;;6.10;99.90;;;;;;5059183;28;20036;-76
2023/01/06 06:26:20;;;;;;;1999.90;999.90;;;6.10;99.90;;;;;;5066490;28;20040;-76
2023/01/06 06:28:46;;;;;;;1999.90;999.90;;;6.10;99.90;;;;;;5066884;28;20025;-75
2023/01/06 06:31:16;;;;;;;1999.90;999.90;;;6.20;99.90;;;;;;5048834;28;20576;-75
2023/01/06 06:33:42;;;;;;;1999.90;999.90;;;6.20;99.90;;;;;;5056277;28;20053;-75
2023/01/06 06:36:18;;;;;;;1999.90;999.90;;;6.10;99.90;;;;;;5062536;28;20132;-75
2023/01/06 06:38:45;;;;;;;1999.90;999.90;;;6.10;99.90;;;;;;5058068;28;20698;-76
2023/01/06 06:41:12;;;;;;;1999.90;999.90;;;6.10;99.90;;;;;;5070227;28;20376;-76
2023/01/06 06:43:38;;;;;;;1999.90;999.90;;;6.10;99.90;;;;;;5058578;28;20513;-76
2023/01/06 06:46:04;;;;;;;1999.90;999.90;;;6.10;99.90;;;;;;5052823;28;20060;-76
2023/01/06 06:48:30;;;;;;;1999.90;999.90;;;6.10;99.90;;;;;;5059158;28;20070;-76
2023/01/06 06:51:01;;;;;;;1999.90;999.90;;;6.00;99.90;;;;;;5061155;28;20086;-75
2023/01/06 06:53:26;;;;;;;1999.90;999.90;;;6.10;99.90;;;;;;5044536;28;20048;-76
2023/01/06 06:55:52;;;;;;;1999.90;999.90;;;6.10;99.90;;;;;;5061387;28;20743;-76
2023/01/06 06:58:18;;;;;;;1999.90;999.90;;;6.10;99.90;;;;;;5061840;28;20045;-76
2023/01/06 07:00:44;;;;;;;1999.90;999.90;;;6.00;99.90;;;;;;5062222;28;20082;-76
2023/01/06 07:03:09;;;;;;;1999.90;999.90;;;5.90;99.90;;;;;;5056027;28;20025;-76
2023/01/06 07:05:35;;;;;;;1999.90;999.90;;;6.00;99.90;;;;;;5056394;28;20040;-76
2023/01/06 07:08:01;;;;;;;1999.90;999.90;;;5.90;99.90;;;;;;5059414;28;20033;-75
2023/01/06 07:10:26;;;;;;;1999.90;999.90;;;5.90;99.90;;;;;;5043461;28;20135;-75
2023/01/06 07:12:52;;;;;;;1999.90;999.90;;;5.90;99.90;;;;;;5060993;28;20664;-75
2023/01/06 07:15:18;;;;;;;1999.90;999.90;;;5.80;99.90;;;;;;5056873;28;20041;-75
2023/01/06 07:17:43;;;;;;;1999.90;999.90;;;5.90;99.90;;;;;;5062465;28;20111;-75
2023/01/06 07:20:09;;;;;;;1999.90;999.90;;;5.80;99.90;;;;;;5064921;28;20316;-76
2023/01/06 07:22:39;;;;;;;1999.90;999.90;;;5.70;99.90;;;;;;5044461;28;20020;-75
2023/01/06 07:25:09;;;;;;;1999.90;999.90;;;5.50;99.90;;;;;;5060480;28;20514;-75
2023/01/06 07:27:35;;;;;;;1999.90;999.90;;;5.50;99.90;;;;;;5063790;28;20041;-74
2023/01/06 07:30:02;;;;;;;1999.90;999.90;;;5.50;99.90;;;;;;5047510;28;20316;-75
2023/01/06 07:32:28;;;;;;;1999.90;999.90;;;5.60;99.90;;;;;;5062872;28;20717;-75
2023/01/06 07:34:53;;;;;;;1999.90;999.90;;;5.60;99.90;;;;;;5055171;28;20040;-75
2023/01/06 07:37:19;;;;;;;1999.90;999.90;;;5.60;99.90;;;;;;5058113;28;20940;-75
2023/01/06 07:39:44;;;;;;;1999.90;999.90;;;5.60;99.90;;;;;;5040442;28;20098;-75
2023/01/06 07:42:10;;;;;;;1999.90;999.90;;;5.60;99.90;;;;;;5059552;28;20013;-75
2023/01/06 07:44:36;;;;;;;1999.90;999.90;;;5.70;99.90;;;;;;5055897;28;20032;-76
2023/01/06 07:47:02;;;;;;;1999.90;999.90;;;5.60;99.90;;;;;;5059332;28;20036;-75
2023/01/06 07:49:27;;;;;;;1999.90;999.90;;;5.60;99.90;;;;;;5056289;28;20249;-75
2023/01/06 07:51:53;;;;;;;1999.90;999.90;;;5.60;99.90;;;;;;5056450;28;20029;-76
2023/01/06 07:54:18;;;;;;;1999.90;999.90;;;5.70;99.90;;;;;;5063402;28;20127;-76
2023/01/06 07:56:44;;;;;;;1999.90;999.90;;;5.70;99.90;;;;;;5056098;28;20443;-76
2023/01/06 07:59:10;;;;;;;1018.40;506.30;;;5.70;99.90;;;;;;5061192;28;20036;-76
2023/01/06 08:01:36;;;;;;;1999.90;999.90;;;5.70;99.90;;;;;;5034943;28;20502;-76
2023/01/06 08:04:02;;;;;;;1999.90;999.90;;;5.70;99.90;;;;;;5047682;28;20037;-75
2023/01/06 08:06:27;;;;;;;1999.90;999.90;;;5.70;99.90;;;;;;5043400;28;20086;-75
2023/01/06 08:08:53;;;;;;;1999.90;999.90;;;5.70;99.90;;;;;;5057061;28;20578;-74
2023/01/06 08:11:19;;;;;;;1999.90;999.90;;;5.90;99.90;;;;;;5055281;28;20596;-74
2023/01/06 08:13:44;;;;;;;1999.90;999.90;;;5.90;99.90;;;;;;5045015;28;20024;-74
2023/01/06 08:16:11;;;;;;;1999.90;999.90;;;5.90;99.90;;;;;;5054489;28;20036;-74
2023/01/06 08:18:52;;;;;;;1999.90;999.90;;;5.90;99.90;;;;;;5054049;28;20032;-74
2023/01/06 08:21:18;;;;;;;1999.90;999.90;;;5.90;99.90;;;;;;5065254;28;20121;-74
2023/01/06 08:23:44;;;;;;;1999.90;999.90;;;5.80;99.90;;;;;;5053825;28;20025;-74
2023/01/06 08:26:15;;;;;;;1999.90;999.90;;;5.80;99.90;;;;;;5056497;28;20516;-75
2023/01/06 08:28:41;;;;;;;1999.90;999.90;;;5.90;99.90;;;;;;5061647;28;20037;-74
2023/01/06 08:31:11;;;;;;;1999.90;999.90;;;5.90;99.90;;;;;;5057224;28;20139;-74
2023/01/06 08:33:38;;;;;;;1999.90;999.90;;;5.80;99.90;;;;;;5056903;28;20025;-74
2023/01/06 08:36:06;;;;;;;1999.90;999.90;;;5.90;99.90;;;;;;5059072;28;20033;-68
2023/01/06 08:38:33;;;;;;;1999.90;999.90;;;5.90;99.90;;;;;;5058037;28;20052;-71
2023/01/06 08:41:03;;;;;;;1999.90;999.90;;;6.00;99.90;;;;;;5059611;28;20036;-70
2023/01/06 08:43:30;;;;;;;1999.90;999.90;;;6.00;99.90;;;;;;5059348;28;20135;-70
2023/01/06 08:46:00;;;;;;;1999.90;999.90;;;6.10;99.90;;;;;;5060684;28;20502;-70
2023/01/06 08:48:27;;;;;;;1999.90;999.90;;;6.20;99.90;;;;;;5056462;28;20052;-70
2023/01/06 08:50:53;;;;;;;1999.90;999.90;;;6.20;99.90;;;;;;5052704;28;20841;-71
2023/01/06 08:53:18;;;;;;;1999.90;999.90;;;6.20;99.90;;;;;;5050334;28;20136;-71
2023/01/06 08:55:44;;;;;;;1999.90;999.90;;;6.30;99.90;;;;;;5053681;28;20031;-72
2023/01/06 08:58:10;;;;;;;1999.90;999.90;;;6.40;99.90;;;;;;5053178;28;20483;-73
2023/01/06 09:00:39;;;;;;;1999.90;999.90;;;6.50;99.90;;;;;;5052349;28;20027;-73
2023/01/06 09:03:05;;;;;;;1999.90;999.90;;;6.50;99.90;;;;;;5055901;28;20030;-72
2023/01/06 09:05:31;;;;;;;1999.90;999.90;;;6.50;99.90;;;;;;5049067;28;20040;-73
2023/01/06 09:07:57;;;;;;;1999.90;999.90;;;6.60;99.90;;;;;;5052956;28;20510;-72
2023/01/06 09:10:22;;;;;;;1999.90;999.90;;;6.60;99.90;;;;;;5045557;28;20044;-72
2023/01/06 09:12:48;;;;;;;1999.90;999.90;;;6.70;99.90;;;;;;5058926;28;20036;-72
2023/01/06 09:15:14;;;;;;;1999.90;999.90;;;6.80;99.90;;;;;;5055720;28;20051;-72
2023/01/06 09:17:40;;;;;;;1999.90;999.90;;;7.00;99.90;;;;;;5056472;28;20067;-73
2023/01/06 09:20:06;;;;;;;1999.90;999.90;;;7.00;99.90;;;;;;5062291;28;20048;-73
2023/01/06 09:22:32;;;;;;;1999.90;999.90;;;7.20;99.90;;;;;;5056911;28;20029;-73
2023/01/06 09:24:58;;;;;;;1999.90;999.90;;;7.10;99.90;;;;;;5058563;28;20078;-73
2023/01/06 09:27:24;;;;;;;1999.90;999.90;;;7.10;99.90;;;;;;5062432;28;20147;-73
2023/01/06 09:29:49;;;;;;;1999.90;999.90;;;7.20;99.90;;;;;;5068035;28;20055;-73
2023/01/06 09:32:15;;;;;;;1999.90;999.90;;;7.20;99.90;;;;;;5057879;28;20029;-72
2023/01/06 09:34:41;;;;;;;1999.90;999.90;;;7.30;99.90;;;;;;5064727;28;20037;-73
2023/01/06 09:37:07;;;;;;;1999.90;999.90;;;7.20;99.90;;;;;;5064443;28;20056;-72
2023/01/06 09:39:33;;;;;;;1999.90;999.90;;;7.30;99.90;;;;;;5060586;28;20053;-73
2023/01/06 09:42:12;;;;;;;1999.90;999.90;;;7.20;99.90;;;;;;5060531;28;20079;-72
2023/01/06 09:44:50;;;;;;;1999.90;999.90;;;7.30;99.90;;;;;;5058862;28;20025;-73
2023/01/06 09:47:20;;;;;;;1999.90;999.90;;;7.30;99.90;;;;;;5063126;28;20029;-73
2023/01/06 09:49:56;;;;;;;1999.90;999.90;;;7.30;99.90;;;;;;5059783;28;20032;-73
2023/01/06 09:52:27;;;;;;;1999.90;999.90;;;7.30;99.90;;;;;;5066666;28;20070;-73
2023/01/06 09:55:13;;;;;;;1999.90;999.90;;;7.30;99.90;;;;;;5057859;28;20059;-73
2023/01/06 09:57:50;;;;;;;1999.90;999.90;;;7.30;99.90;;;;;;5069796;28;20108;-74
2023/01/06 10:00:39;;;;;;;1999.90;999.90;;;7.50;99.90;;;;;;5065141;28;20044;-74
2023/01/06 10:03:11;;;;;;;1999.90;999.90;;;7.40;99.90;;;;;;5064374;28;20522;-73
2023/01/06 10:05:40;;;;;;;1999.90;999.90;;;7.30;99.90;;;;;;5059952;28;20039;-73
2023/01/06 10:08:29;;;;;;;1999.90;999.90;;;7.30;99.90;;;;;;5061404;28;20029;-74
2023/01/06 10:11:14;;;;;;;1999.90;999.90;;;7.40;99.90;;;;;;5065846;28;20107;-72
2023/01/06 10:14:01;;;;;;;1999.90;999.90;;;7.50;99.90;;;;;;5042033;28;20115;-73
2023/01/06 10:16:40;;;;;;;1999.90;999.90;;;7.60;99.90;;;;;;5062274;28;20032;-73
2023/01/06 10:19:47;;;;;;;1999.90;999.90;;;7.80;99.90;;;;;;5059247;28;20037;-73
2023/01/06 10:22:31;;;;;;;1999.90;999.90;;;7.80;99.90;;;;;;5017383;28;20041;-73
2023/01/06 10:25:18;;;;;;;1999.90;999.90;;;7.80;99.90;;;;;;5021909;28;20030;-72
2023/01/06 10:28:01;;;;;;;1999.90;999.90;;;7.90;99.90;;;;;;5056460;28;20033;-73
2023/01/06 10:30:33;;;;;;;1999.90;999.90;;;7.80;99.90;;;;;;5048128;28;20049;-73
2023/01/06 10:33:00;;;;;;;1999.90;999.90;;;7.80;99.90;;;;;;5061042;28;20028;-73
2023/01/06 10:35:26;;;;;;;1530.40;761.97;;;7.90;99.90;;;;;;5054182;28;20591;-75
2023/01/06 10:37:54;;;;;;;1999.90;999.90;;;7.90;99.90;;;;;;5062480;28;20025;-71
2023/01/06 10:40:21;;;;;;;1999.90;999.90;;;7.70;99.90;;;;;;5065081;28;20075;-76
2023/01/06 10:42:54;;;;;;;1999.90;999.90;;;7.50;99.90;;;;;;5063101;28;20137;-76
2023/01/06 10:45:25;;;;;;;1999.90;999.90;;;7.50;99.90;;;;;;5055907;28;20354;-74
2023/01/06 10:47:51;;;;;;;862.50;367.63;;;7.60;99.90;;;;;;5056518;28;20028;-74
2023/01/06 10:50:18;;;;;;;1999.90;999.90;;;7.40;99.90;;;;;;5057407;28;20036;-74
2023/01/06 10:52:46;;;;;;;1999.90;999.90;;;7.50;99.90;;;;;;5062415;28;20403;-74
2023/01/06 10:55:36;;;;;;;1999.90;999.90;;;7.70;99.90;;;;;;5063302;28;20028;-74
2023/01/06 10:58:21;;;;;;;;;;;7.80;99.90;;;;;;5064894;28;20024;-74
2023/01/06 11:00:58;;;;;;;1999.90;999.90;;;7.90;99.90;;;;;;5054564;28;19916;-74
2023/01/06 11:03:24;;;;;;;1999.90;999.90;;;7.90;99.90;;;;;;5052702;28;20033;-75
2023/01/06 11:06:24;;;;;;;1999.90;999.90;;;8.30;99.90;;;;;;5057901;28;20091;-74
2023/01/06 11:08:50;;;;;;;775.50;423.85;;;8.20;99.90;;;;;;5055882;28;20028;-75
2023/01/06 11:11:17;;;;;;;1638.40;823.30;;;8.20;99.90;;;;;;5057834;28;20048;-75
2023/01/06 11:13:50;;;;;;;1999.90;999.90;;;8.30;99.90;;;;;;5067442;28;20186;-75
2023/01/06 11:16:31;;;;;;;1999.90;999.90;;;8.50;99.90;;;;;;5044421;28;20124;-81
2023/01/06 11:19:01;;;;;;;1999.90;999.90;;;8.30;99.90;;;;;;5055342;28;20427;-75
2023/01/06 11:21:40;;;;;;;;;;;8.40;99.90;;;;;;5073224;28;20051;-74
2023/01/06 11:24:25;;;;;;;1999.90;999.90;;;8.10;99.90;;;;;;5067514;28;20290;-74
2023/01/06 11:27:01;;;;;;;1999.90;999.90;;;8.30;99.90;;;;;;5055990;28;20033;-74
2023/01/06 11:29:26;;;;;;;1999.90;999.90;;;8.30;99.90;;;;;;5055678;28;20115;-73
2023/01/06 11:31:52;;;;;;;1999.90;999.90;;;8.50;99.90;;;;;;5061843;28;20200;-75
2023/01/06 11:34:25;;;;;;;1237.47;627.90;;;8.40;99.90;;;;;;5060864;28;20567;-74
2023/01/06 11:36:51;;;;;;;1999.90;999.90;;;8.20;99.90;;;;;;5049876;28;20033;-74
2023/01/06 11:39:33;;;;;;;1999.90;999.90;;;8.10;99.90;;;;;;5062838;28;20086;-73
2023/01/06 11:42:13;;;;;;;1999.90;999.90;;;8.30;99.90;;;;;;5056131;28;20096;-73
2023/01/06 11:44:41;;;;;;;1999.90;999.90;;;8.40;99.90;;;;;;5062358;28;20140;-74
2023/01/06 11:47:12;;;;;;;1999.90;999.90;;;8.60;99.90;;;;;;5056910;28;20095;-73
2023/01/06 11:49:46;;;;;;;1354.38;941.53;;;8.50;99.90;;;;;;5059998;28;20074;-74
2023/01/06 11:52:23;;;;;;;1329.20;665.33;;;8.60;99.90;;;;;;5061343;28;20025;-74
2023/01/06 11:55:07;;;;;;;511.88;406.02;;;8.40;99.90;;;;;;5062497;28;20024;-73
2023/01/06 11:58:27;;;;;;;1999.90;999.90;;;8.60;99.90;;;;;;5056750;28;20061;-74
2023/01/06 12:01:05;;;;;;;765.78;544.33;;;8.70;99.90;;;;;;5022505;28;20045;-74
2023/01/06 12:03:40;;;;;;;1226.30;876.28;;;8.70;99.90;;;;;;5055909;28;20044;-74
2023/01/06 12:06:06;;;;;;;1999.90;999.90;;;8.80;99.90;;;;;;5052344;28;20031;-75
2023/01/06 12:08:40;;;;;;;1999.90;999.90;;;9.00;99.90;;;;;;5058283;28;20028;-76
2023/01/06 12:11:18;;;;;;;1999.90;999.90;;;9.10;99.90;;;;;;5058826;28;20430;-75
2023/01/06 12:13:44;;;;;;;1999.90;999.90;;;9.50;99.90;;;;;;5058186;28;20394;-75
2023/01/06 12:16:26;;;;;;;1115.35;664.30;;;9.50;99.90;;;;;;5060482;28;20033;-75
2023/01/06 12:18:53;;;;;;;977.28;578.03;;;9.70;99.90;;;;;;5058161;28;20033;-75
2023/01/06 12:21:27;;;;;;;1999.90;999.90;;;9.90;99.90;;;;;;5065707;28;20078;-75
2023/01/06 12:23:57;;;;;;;1697.03;889.22;;;9.90;99.90;;;;;;5059463;28;20074;-76
2023/01/06 12:26:24;;;;;;;1999.90;999.90;;;10.00;99.90;;;;;;5055713;28;20036;-74
2023/01/06 12:28:53;;;;;;;1172.93;849.80;;;9.90;99.90;;;;;;5059523;28;20268;-75
2023/01/06 12:31:26;;;;;;;1999.90;999.90;;;9.80;99.90;;;;;;5056716;28;20379;-75